sensor_id;sensor_type;location;lat;lon;timestamp;temperature;humidity
78325;DHT22;67584;51.400;6.692;2023-12-20T00:01:32;6.90;92.20
78325;DHT22;67584;51.400;6.692;2023-12-20T00:03:58;6.80;92.20
78325;DHT22;67584;51.400;6.692;2023-12-20T00:06:23;6.70;92.20
78325;DHT22;67584;51.400;6.692;2023-12-20T00:08:49;6.70;92.20
78325;DHT22;67584;51.400;6.692;2023-12-20T00:11:15;6.60;92.20
78325;DHT22;67584;51.400;6.692;2023-12-20T00:13:40;6.60;92.20
78325;DHT22;67584;51.400;6.692;2023-12-20T00:16:06;6.30;92.20
78325;DHT22;67584;51.400;6.692;2023-12-20T00:18:32;6.50;92.20
78325;DHT22;67584;51.400;6.692;2023-12-20T00:20:57;6.20;92.20
78325;DHT22;67584;51.400;6.692;2023-12-20T00:23:23;6.50;92.20
78325;DHT22;67584;51.400;6.692;2023-12-20T00:25:49;6.10;92.20
78325;DHT22;67584;51.400;6.692;2023-12-20T00:28:15;6.40;92.20
78325;DHT22;67584;51.400;6.692;2023-12-20T00:30:40;6.20;92.20
78325;DHT22;67584;51.400;6.692;2023-12-20T00:33:06;6.20;92.20
78325;DHT22;67584;51.400;6.692;2023-12-20T00:35:32;6.20;92.20
78325;DHT22;67584;51.400;6.692;2023-12-20T00:37:58;6.20;92.20
78325;DHT22;67584;51.400;6.692;2023-12-20T00:40:24;6.20;92.20
78325;DHT22;67584;51.400;6.692;2023-12-20T00:42:50;6.30;92.20
78325;DHT22;67584;51.400;6.692;2023-12-20T00:45:16;6.20;92.20
78325;DHT22;67584;51.400;6.692;2023-12-20T00:47:42;6.30;92.20
78325;DHT22;67584;51.400;6.692;2023-12-20T00:50:08;6.40;92.20
78325;DHT22;67584;51.400;6.692;2023-12-20T00:52:34;6.40;92.20
78325;DHT22;67584;51.400;6.692;2023-12-20T00:55:00;6.60;92.20
78325;DHT22;67584;51.400;6.692;2023-12-20T00:57:25;6.60;92.20
78325;DHT22;67584;51.400;6.692;2023-12-20T00:59:51;6.50;92.20
78325;DHT22;67584;51.400;6.692;2023-12-20T01:02:17;6.50;92.20
78325;DHT22;67584;51.400;6.692;2023-12-20T01:04:43;6.50;92.20
78325;DHT22;67584;51.400;6.692;2023-12-20T01:07:08;6.40;92.20
78325;DHT22;67584;51.400;6.692;2023-12-20T01:09:34;6.70;92.20
78325;DHT22;67584;51.400;6.692;2023-12-20T01:12:00;6.40;92.20
78325;DHT22;67584;51.400;6.692;2023-12-20T01:14:26;6.40;92.20
78325;DHT22;67584;51.400;6.692;2023-12-20T01:16:51;6.50;92.20
78325;DHT22;67584;51.400;6.692;2023-12-20T01:19:17;6.40;92.20
78325;DHT22;67584;51.400;6.692;2023-12-20T01:21:43;6.40;92.20
78325;DHT22;67584;51.400;6.692;2023-12-20T01:24:08;6.50;92.20
78325;DHT22;67584;51.400;6.692;2023-12-20T01:26:34;6.40;92.20
78325;DHT22;67584;51.400;6.692;2023-12-20T01:29:00;6.30;92.20
78325;DHT22;67584;51.400;6.692;2023-12-20T01:31:26;6.20;92.20
78325;DHT22;67584;51.400;6.692;2023-12-20T01:33:53;6.10;92.20
78325;DHT22;67584;51.400;6.692;2023-12-20T01:36:18;6.10;92.20
78325;DHT22;67584;51.400;6.692;2023-12-20T01:38:45;5.80;92.20
78325;DHT22;67584;51.400;6.692;2023-12-20T01:41:11;5.90;92.20
78325;DHT22;67584;51.400;6.692;2023-12-20T01:43:36;5.70;92.20
78325;DHT22;67584;51.400;6.692;2023-12-20T01:46:02;5.80;92.20
78325;DHT22;67584;51.400;6.692;2023-12-20T01:48:29;5.90;92.20
78325;DHT22;67584;51.400;6.692;2023-12-20T01:50:58;5.40;92.20
78325;DHT22;67584;51.400;6.692;2023-12-20T01:53:25;5.50;92.20
78325;DHT22;67584;51.400;6.692;2023-12-20T01:55:54;5.50;92.20
78325;DHT22;67584;51.400;6.692;2023-12-20T01:58:22;5.30;92.20
78325;DHT22;67584;51.400;6.692;2023-12-20T02:00:48;5.20;92.20
78325;DHT22;67584;51.400;6.692;2023-12-20T02:03:14;5.40;92.20
78325;DHT22;67584;51.400;6.692;2023-12-20T02:05:40;5.40;92.20
78325;DHT22;67584;51.400;6.692;2023-12-20T02:08:07;5.70;92.20
78325;DHT22;67584;51.400;6.692;2023-12-20T02:10:32;5.60;92.20
78325;DHT22;67584;51.400;6.692;2023-12-20T02:12:58;5.30;92.20
78325;DHT22;67584;51.400;6.692;2023-12-20T02:15:24;5.30;92.20
78325;DHT22;67584;51.400;6.692;2023-12-20T02:17:50;5.30;92.20
78325;DHT22;67584;51.400;6.692;2023-12-20T02:20:16;5.10;92.20
78325;DHT22;67584;51.400;6.692;2023-12-20T02:22:42;5.30;92.20
78325;DHT22;67584;51.400;6.692;2023-12-20T02:25:07;5.30;92.20
78325;DHT22;67584;51.400;6.692;2023-12-20T02:27:34;5.10;92.20
78325;DHT22;67584;51.400;6.692;2023-12-20T02:30:00;5.20;92.20
78325;DHT22;67584;51.400;6.692;2023-12-20T02:32:26;5.00;92.20
78325;DHT22;67584;51.400;6.692;2023-12-20T02:34:53;5.00;92.20
78325;DHT22;67584;51.400;6.692;2023-12-20T02:37:19;5.10;92.20
78325;DHT22;67584;51.400;6.692;2023-12-20T02:39:44;5.10;92.20
78325;DHT22;67584;51.400;6.692;2023-12-20T02:42:10;5.20;92.20
78325;DHT22;67584;51.400;6.692;2023-12-20T02:44:36;5.40;92.20
78325;DHT22;67584;51.400;6.692;2023-12-20T02:47:02;5.40;92.20
78325;DHT22;67584;51.400;6.692;2023-12-20T02:49:28;5.20;92.20
78325;DHT22;67584;51.400;6.692;2023-12-20T02:51:53;5.20;92.20
78325;DHT22;67584;51.400;6.692;2023-12-20T02:54:19;5.00;92.20
78325;DHT22;67584;51.400;6.692;2023-12-20T02:56:45;5.10;92.20
78325;DHT22;67584;51.400;6.692;2023-12-20T02:59:10;4.80;92.20
78325;DHT22;67584;51.400;6.692;2023-12-20T03:01:44;5.00;92.20
78325;DHT22;67584;51.400;6.692;2023-12-20T03:04:11;4.90;92.20
78325;DHT22;67584;51.400;6.692;2023-12-20T03:06:37;5.00;92.20
78325;DHT22;67584;51.400;6.692;2023-12-20T03:09:03;5.00;92.20
78325;DHT22;67584;51.400;6.692;2023-12-20T03:11:28;5.20;92.20
78325;DHT22;67584;51.400;6.692;2023-12-20T03:13:55;5.10;92.20
78325;DHT22;67584;51.400;6.692;2023-12-20T03:16:21;5.30;92.20
78325;DHT22;67584;51.400;6.692;2023-12-20T03:18:46;5.20;92.20
78325;DHT22;67584;51.400;6.692;2023-12-20T03:21:12;5.30;92.20
78325;DHT22;67584;51.400;6.692;2023-12-20T03:23:38;5.20;92.20
78325;DHT22;67584;51.400;6.692;2023-12-20T03:26:07;5.30;92.20
78325;DHT22;67584;51.400;6.692;2023-12-20T03:28:33;5.00;92.20
78325;DHT22;67584;51.400;6.692;2023-12-20T03:30:58;5.20;92.20
78325;DHT22;67584;51.400;6.692;2023-12-20T03:33:24;5.10;92.20
78325;DHT22;67584;51.400;6.692;2023-12-20T03:35:50;5.30;92.20
78325;DHT22;67584;51.400;6.692;2023-12-20T03:38:15;5.10;92.20
78325;DHT22;67584;51.400;6.692;2023-12-20T03:40:41;5.30;92.20
78325;DHT22;67584;51.400;6.692;2023-12-20T03:43:07;5.00;92.20
78325;DHT22;67584;51.400;6.692;2023-12-20T03:45:33;5.20;92.20
78325;DHT22;67584;51.400;6.692;2023-12-20T03:47:59;5.30;92.20
78325;DHT22;67584;51.400;6.692;2023-12-20T03:50:24;5.20;92.20
78325;DHT22;67584;51.400;6.692;2023-12-20T03:52:50;5.00;92.20
78325;DHT22;67584;51.400;6.692;2023-12-20T03:55:16;5.10;92.20
78325;DHT22;67584;51.400;6.692;2023-12-20T03:57:42;4.90;92.20
78325;DHT22;67584;51.400;6.692;2023-12-20T04:00:08;5.00;92.20
78325;DHT22;67584;51.400;6.692;2023-12-20T04:02:41;5.00;92.20
78325;DHT22;67584;51.400;6.692;2023-12-20T04:05:08;4.90;92.20
78325;DHT22;67584;51.400;6.692;2023-12-20T04:07:35;4.80;92.20
78325;DHT22;67584;51.400;6.692;2023-12-20T04:10:01;4.90;92.20
78325;DHT22;67584;51.400;6.692;2023-12-20T04:12:30;4.90;92.20
78325;DHT22;67584;51.400;6.692;2023-12-20T04:14:56;4.80;92.20
78325;DHT22;67584;51.400;6.692;2023-12-20T04:17:22;4.80;92.20
78325;DHT22;67584;51.400;6.692;2023-12-20T04:19:49;4.90;92.20
78325;DHT22;67584;51.400;6.692;2023-12-20T04:22:15;4.90;92.20
78325;DHT22;67584;51.400;6.692;2023-12-20T04:24:40;4.60;92.20
78325;DHT22;67584;51.400;6.692;2023-12-20T04:27:08;4.90;92.20
78325;DHT22;67584;51.400;6.692;2023-12-20T04:29:34;4.90;92.20
78325;DHT22;67584;51.400;6.692;2023-12-20T04:32:00;4.90;92.20
78325;DHT22;67584;51.400;6.692;2023-12-20T04:34:25;5.00;92.20
78325;DHT22;67584;51.400;6.692;2023-12-20T04:36:51;4.90;92.20
78325;DHT22;67584;51.400;6.692;2023-12-20T04:39:17;4.90;92.20
78325;DHT22;67584;51.400;6.692;2023-12-20T04:41:43;4.80;92.20
78325;DHT22;67584;51.400;6.692;2023-12-20T04:44:08;5.00;92.20
78325;DHT22;67584;51.400;6.692;2023-12-20T04:46:34;4.90;92.20
78325;DHT22;67584;51.400;6.692;2023-12-20T04:49:00;4.80;92.20
78325;DHT22;67584;51.400;6.692;2023-12-20T04:51:27;4.70;92.20
78325;DHT22;67584;51.400;6.692;2023-12-20T04:53:52;4.90;92.20
78325;DHT22;67584;51.400;6.692;2023-12-20T04:56:18;4.60;92.20
78325;DHT22;67584;51.400;6.692;2023-12-20T04:58:44;4.80;92.20
78325;DHT22;67584;51.400;6.692;2023-12-20T05:01:09;4.70;92.20
78325;DHT22;67584;51.400;6.692;2023-12-20T05:03:36;4.70;92.20
78325;DHT22;67584;51.400;6.692;2023-12-20T05:06:01;4.70;92.20
78325;DHT22;67584;51.400;6.692;2023-12-20T05:08:27;4.40;92.20
78325;DHT22;67584;51.400;6.692;2023-12-20T05:10:54;4.60;92.20
78325;DHT22;67584;51.400;6.692;2023-12-20T05:13:20;4.80;92.20
78325;DHT22;67584;51.400;6.692;2023-12-20T05:15:45;4.60;92.20
78325;DHT22;67584;51.400;6.692;2023-12-20T05:18:12;4.90;92.20
78325;DHT22;67584;51.400;6.692;2023-12-20T05:20:38;4.80;92.20
78325;DHT22;67584;51.400;6.692;2023-12-20T05:23:04;5.00;92.20
78325;DHT22;67584;51.400;6.692;2023-12-20T05:25:29;4.90;92.20
78325;DHT22;67584;51.400;6.692;2023-12-20T05:27:55;5.10;92.20
78325;DHT22;67584;51.400;6.692;2023-12-20T05:30:21;5.10;92.20
78325;DHT22;67584;51.400;6.692;2023-12-20T05:32:47;5.10;92.20
78325;DHT22;67584;51.400;6.692;2023-12-20T05:35:13;5.10;92.20
78325;DHT22;67584;51.400;6.692;2023-12-20T05:37:39;5.00;92.20
78325;DHT22;67584;51.400;6.692;2023-12-20T05:40:05;5.30;92.20
78325;DHT22;67584;51.400;6.692;2023-12-20T05:42:31;5.30;92.20
78325;DHT22;67584;51.400;6.692;2023-12-20T05:44:57;5.20;92.20
78325;DHT22;67584;51.400;6.692;2023-12-20T05:47:22;5.10;92.20
78325;DHT22;67584;51.400;6.692;2023-12-20T05:49:48;5.00;92.20
78325;DHT22;67584;51.400;6.692;2023-12-20T05:52:15;5.10;92.20
78325;DHT22;67584;51.400;6.692;2023-12-20T05:54:41;5.10;92.20
78325;DHT22;67584;51.400;6.692;2023-12-20T05:57:06;5.20;92.20
78325;DHT22;67584;51.400;6.692;2023-12-20T05:59:32;5.40;92.20
78325;DHT22;67584;51.400;6.692;2023-12-20T06:01:58;5.40;92.20
78325;DHT22;67584;51.400;6.692;2023-12-20T06:04:23;5.20;92.20
78325;DHT22;67584;51.400;6.692;2023-12-20T06:06:49;5.30;92.20
78325;DHT22;67584;51.400;6.692;2023-12-20T06:09:14;5.30;92.20
78325;DHT22;67584;51.400;6.692;2023-12-20T06:11:40;5.30;92.20
78325;DHT22;67584;51.400;6.692;2023-12-20T06:14:06;5.30;92.20
78325;DHT22;67584;51.400;6.692;2023-12-20T06:16:32;5.40;92.20
78325;DHT22;67584;51.400;6.692;2023-12-20T06:18:57;5.50;92.20
78325;DHT22;67584;51.400;6.692;2023-12-20T06:21:23;5.40;92.20
78325;DHT22;67584;51.400;6.692;2023-12-20T06:23:49;5.40;92.20
78325;DHT22;67584;51.400;6.692;2023-12-20T06:26:14;5.50;92.20
78325;DHT22;67584;51.400;6.692;2023-12-20T06:28:40;5.50;92.20
78325;DHT22;67584;51.400;6.692;2023-12-20T06:31:06;5.50;92.20
78325;DHT22;67584;51.400;6.692;2023-12-20T06:33:31;5.70;92.20
78325;DHT22;67584;51.400;6.692;2023-12-20T06:35:57;5.50;92.20
78325;DHT22;67584;51.400;6.692;2023-12-20T06:38:23;5.80;92.20
78325;DHT22;67584;51.400;6.692;2023-12-20T06:40:49;5.70;92.20
78325;DHT22;67584;51.400;6.692;2023-12-20T06:43:14;5.80;92.20
78325;DHT22;67584;51.400;6.692;2023-12-20T06:45:42;5.70;92.10
78325;DHT22;67584;51.400;6.692;2023-12-20T06:48:08;5.80;92.10
78325;DHT22;67584;51.400;6.692;2023-12-20T06:50:36;5.60;92.00
78325;DHT22;67584;51.400;6.692;2023-12-20T06:53:05;5.80;92.00
78325;DHT22;67584;51.400;6.692;2023-12-20T06:55:35;5.80;92.00
78325;DHT22;67584;51.400;6.692;2023-12-20T06:58:03;5.80;92.00
78325;DHT22;67584;51.400;6.692;2023-12-20T07:00:30;6.00;92.10
78325;DHT22;67584;51.400;6.692;2023-12-20T07:02:56;5.80;92.00
78325;DHT22;67584;51.400;6.692;2023-12-20T07:05:21;6.00;91.70
78325;DHT22;67584;51.400;6.692;2023-12-20T07:07:48;5.90;91.80
78325;DHT22;67584;51.400;6.692;2023-12-20T07:10:14;5.80;91.90
78325;DHT22;67584;51.400;6.692;2023-12-20T07:12:39;6.00;91.40
78325;DHT22;67584;51.400;6.692;2023-12-20T07:15:05;6.10;91.40
78325;DHT22;67584;51.400;6.692;2023-12-20T07:17:33;5.90;91.00
78325;DHT22;67584;51.400;6.692;2023-12-20T07:19:59;6.00;91.20
78325;DHT22;67584;51.400;6.692;2023-12-20T07:22:29;6.10;91.20
78325;DHT22;67584;51.400;6.692;2023-12-20T07:24:58;5.90;90.70
78325;DHT22;67584;51.400;6.692;2023-12-20T07:27:24;6.00;90.80
78325;DHT22;67584;51.400;6.692;2023-12-20T07:29:53;6.00;90.70
78325;DHT22;67584;51.400;6.692;2023-12-20T07:32:19;6.20;90.80
78325;DHT22;67584;51.400;6.692;2023-12-20T07:34:44;6.10;90.80
78325;DHT22;67584;51.400;6.692;2023-12-20T07:37:10;6.10;90.30
78325;DHT22;67584;51.400;6.692;2023-12-20T07:39:40;6.30;90.40
78325;DHT22;67584;51.400;6.692;2023-12-20T07:42:07;6.20;90.10
78325;DHT22;67584;51.400;6.692;2023-12-20T07:44:33;6.30;89.90
78325;DHT22;67584;51.400;6.692;2023-12-20T07:47:01;6.20;89.80
78325;DHT22;67584;51.400;6.692;2023-12-20T07:49:27;6.10;89.90
78325;DHT22;67584;51.400;6.692;2023-12-20T07:51:53;6.40;89.40
78325;DHT22;67584;51.400;6.692;2023-12-20T07:54:19;6.30;89.60
78325;DHT22;67584;51.400;6.692;2023-12-20T07:56:46;6.40;89.90
78325;DHT22;67584;51.400;6.692;2023-12-20T07:59:12;6.30;89.50
78325;DHT22;67584;51.400;6.692;2023-12-20T08:01:37;6.20;89.40
78325;DHT22;67584;51.400;6.692;2023-12-20T08:04:03;6.40;89.90
78325;DHT22;67584;51.400;6.692;2023-12-20T08:06:29;6.20;89.40
78325;DHT22;67584;51.400;6.692;2023-12-20T08:08:55;6.40;89.20
78325;DHT22;67584;51.400;6.692;2023-12-20T08:11:20;6.20;89.30
78325;DHT22;67584;51.400;6.692;2023-12-20T08:13:46;6.30;88.90
78325;DHT22;67584;51.400;6.692;2023-12-20T08:16:15;6.40;88.80
78325;DHT22;67584;51.400;6.692;2023-12-20T08:18:43;6.50;89.10
78325;DHT22;67584;51.400;6.692;2023-12-20T08:21:15;6.20;88.70
78325;DHT22;67584;51.400;6.692;2023-12-20T08:23:41;6.20;88.60
78325;DHT22;67584;51.400;6.692;2023-12-20T08:26:07;6.40;88.70
78325;DHT22;67584;51.400;6.692;2023-12-20T08:28:33;6.20;88.60
78325;DHT22;67584;51.400;6.692;2023-12-20T08:31:00;6.40;88.60
78325;DHT22;67584;51.400;6.692;2023-12-20T08:33:26;6.30;88.90
78325;DHT22;67584;51.400;6.692;2023-12-20T08:35:52;6.50;88.20
78325;DHT22;67584;51.400;6.692;2023-12-20T08:38:17;6.50;88.20
78325;DHT22;67584;51.400;6.692;2023-12-20T08:40:44;6.20;88.30
78325;DHT22;67584;51.400;6.692;2023-12-20T08:43:09;6.40;88.60
78325;DHT22;67584;51.400;6.692;2023-12-20T08:45:35;6.20;88.30
78325;DHT22;67584;51.400;6.692;2023-12-20T08:48:01;6.30;88.20
78325;DHT22;67584;51.400;6.692;2023-12-20T08:50:26;6.40;88.20
78325;DHT22;67584;51.400;6.692;2023-12-20T08:52:52;6.40;88.10
78325;DHT22;67584;51.400;6.692;2023-12-20T08:55:19;6.40;87.90
78325;DHT22;67584;51.400;6.692;2023-12-20T08:57:45;6.60;87.70
78325;DHT22;67584;51.400;6.692;2023-12-20T09:00:11;6.40;87.80
78325;DHT22;67584;51.400;6.692;2023-12-20T09:02:37;6.60;87.50
78325;DHT22;67584;51.400;6.692;2023-12-20T09:05:03;6.50;87.80
78325;DHT22;67584;51.400;6.692;2023-12-20T09:07:29;6.70;87.50
78325;DHT22;67584;51.400;6.692;2023-12-20T09:09:57;6.40;87.60
78325;DHT22;67584;51.400;6.692;2023-12-20T09:12:23;6.50;87.50
78325;DHT22;67584;51.400;6.692;2023-12-20T09:14:51;6.50;87.90
78325;DHT22;67584;51.400;6.692;2023-12-20T09:17:17;6.50;87.20
78325;DHT22;67584;51.400;6.692;2023-12-20T09:19:44;6.60;87.50
78325;DHT22;67584;51.400;6.692;2023-12-20T09:22:10;6.50;87.70
78325;DHT22;67584;51.400;6.692;2023-12-20T09:24:36;6.50;87.80
78325;DHT22;67584;51.400;6.692;2023-12-20T09:27:02;6.40;87.90
78325;DHT22;67584;51.400;6.692;2023-12-20T09:29:28;6.60;87.90
78325;DHT22;67584;51.400;6.692;2023-12-20T09:31:54;6.60;87.50
78325;DHT22;67584;51.400;6.692;2023-12-20T09:34:20;6.50;87.30
78325;DHT22;67584;51.400;6.692;2023-12-20T09:36:47;6.60;87.40
78325;DHT22;67584;51.400;6.692;2023-12-20T09:39:13;6.70;87.00
78325;DHT22;67584;51.400;6.692;2023-12-20T09:41:43;6.60;87.10
78325;DHT22;67584;51.400;6.692;2023-12-20T09:44:15;6.60;87.10
78325;DHT22;67584;51.400;6.692;2023-12-20T09:46:44;6.70;87.10
78325;DHT22;67584;51.400;6.692;2023-12-20T09:49:10;6.70;87.10
78325;DHT22;67584;51.400;6.692;2023-12-20T09:51:36;6.70;86.90
78325;DHT22;67584;51.400;6.692;2023-12-20T09:54:03;6.70;87.10
78325;DHT22;67584;51.400;6.692;2023-12-20T09:56:30;6.70;87.10
78325;DHT22;67584;51.400;6.692;2023-12-20T09:58:56;6.80;86.90
78325;DHT22;67584;51.400;6.692;2023-12-20T10:01:23;6.70;86.60
78325;DHT22;67584;51.400;6.692;2023-12-20T10:03:54;6.70;86.80
78325;DHT22;67584;51.400;6.692;2023-12-20T10:06:19;6.80;87.00
78325;DHT22;67584;51.400;6.692;2023-12-20T10:08:45;6.70;86.60
78325;DHT22;67584;51.400;6.692;2023-12-20T10:11:11;6.70;86.90
78325;DHT22;67584;51.400;6.692;2023-12-20T10:13:41;6.80;86.00
78325;DHT22;67584;51.400;6.692;2023-12-20T10:16:07;6.90;86.20
78325;DHT22;67584;51.400;6.692;2023-12-20T10:18:33;6.90;85.80
78325;DHT22;67584;51.400;6.692;2023-12-20T10:21:00;7.00;85.70
78325;DHT22;67584;51.400;6.692;2023-12-20T10:23:26;6.90;85.70
78325;DHT22;67584;51.400;6.692;2023-12-20T10:25:59;6.90;85.70
78325;DHT22;67584;51.400;6.692;2023-12-20T10:28:26;7.30;85.60
78325;DHT22;67584;51.400;6.692;2023-12-20T10:30:54;7.20;85.20
78325;DHT22;67584;51.400;6.692;2023-12-20T10:33:27;7.00;85.20
78325;DHT22;67584;51.400;6.692;2023-12-20T10:35:55;7.20;85.60
78325;DHT22;67584;51.400;6.692;2023-12-20T10:38:21;7.10;85.40
78325;DHT22;67584;51.400;6.692;2023-12-20T10:40:47;7.20;85.50
78325;DHT22;67584;51.400;6.692;2023-12-20T10:43:15;7.40;85.60
78325;DHT22;67584;51.400;6.692;2023-12-20T10:45:42;7.20;85.50
78325;DHT22;67584;51.400;6.692;2023-12-20T10:48:10;7.30;85.60
78325;DHT22;67584;51.400;6.692;2023-12-20T10:50:38;7.10;86.00
78325;DHT22;67584;51.400;6.692;2023-12-20T10:53:06;7.30;85.90
78325;DHT22;67584;51.400;6.692;2023-12-20T10:55:32;7.20;85.70
78325;DHT22;67584;51.400;6.692;2023-12-20T10:58:07;7.10;85.90
78325;DHT22;67584;51.400;6.692;2023-12-20T11:00:40;7.00;85.90
78325;DHT22;67584;51.400;6.692;2023-12-20T11:03:09;7.20;86.10
78325;DHT22;67584;51.400;6.692;2023-12-20T11:08:20;7.10;86.20
78325;DHT22;67584;51.400;6.692;2023-12-20T11:13:35;7.10;86.70
78325;DHT22;67584;51.400;6.692;2023-12-20T11:16:03;7.20;86.10
78325;DHT22;67584;51.400;6.692;2023-12-20T11:18:30;7.20;86.20
78325;DHT22;67584;51.400;6.692;2023-12-20T11:21:09;7.20;85.90
78325;DHT22;67584;51.400;6.692;2023-12-20T11:23:36;7.20;85.60
78325;DHT22;67584;51.400;6.692;2023-12-20T11:26:02;7.50;85.10
78325;DHT22;67584;51.400;6.692;2023-12-20T11:28:29;7.50;85.60
78325;DHT22;67584;51.400;6.692;2023-12-20T11:30:58;7.60;85.00
78325;DHT22;67584;51.400;6.692;2023-12-20T11:33:26;7.60;84.90
78325;DHT22;67584;51.400;6.692;2023-12-20T11:35:59;7.40;85.30
78325;DHT22;67584;51.400;6.692;2023-12-20T11:38:25;7.50;85.10
78325;DHT22;67584;51.400;6.692;2023-12-20T11:40:52;7.30;84.80
78325;DHT22;67584;51.400;6.692;2023-12-20T11:43:31;7.40;85.20
78325;DHT22;67584;51.400;6.692;2023-12-20T11:46:03;7.50;85.50
78325;DHT22;67584;51.400;6.692;2023-12-20T11:48:30;7.40;85.80
78325;DHT22;67584;51.400;6.692;2023-12-20T11:50:58;7.40;86.50
78325;DHT22;67584;51.400;6.692;2023-12-20T11:53:24;7.20;86.70
78325;DHT22;67584;51.400;6.692;2023-12-20T11:55:50;7.20;87.10
78325;DHT22;67584;51.400;6.692;2023-12-20T11:58:16;7.10;87.50
78325;DHT22;67584;51.400;6.692;2023-12-20T12:00:42;7.00;88.40
78325;DHT22;67584;51.400;6.692;2023-12-20T12:03:08;6.90;88.30
78325;DHT22;67584;51.400;6.692;2023-12-20T12:05:34;7.00;87.90
78325;DHT22;67584;51.400;6.692;2023-12-20T12:08:02;7.00;88.50
78325;DHT22;67584;51.400;6.692;2023-12-20T12:10:28;6.80;88.60
78325;DHT22;67584;51.400;6.692;2023-12-20T12:12:54;7.00;89.50
78325;DHT22;67584;51.400;6.692;2023-12-20T12:15:20;6.80;89.20
78325;DHT22;67584;51.400;6.692;2023-12-20T12:17:54;6.80;88.70
78325;DHT22;67584;51.400;6.692;2023-12-20T12:20:20;6.90;88.90
78325;DHT22;67584;51.400;6.692;2023-12-20T12:22:46;7.00;88.40
78325;DHT22;67584;51.400;6.692;2023-12-20T12:25:16;7.00;88.40
78325;DHT22;67584;51.400;6.692;2023-12-20T12:27:42;7.10;88.10
78325;DHT22;67584;51.400;6.692;2023-12-20T12:30:09;7.10;88.40
78325;DHT22;67584;51.400;6.692;2023-12-20T12:32:36;7.00;88.40
78325;DHT22;67584;51.400;6.692;2023-12-20T12:35:05;7.20;88.50
78325;DHT22;67584;51.400;6.692;2023-12-20T12:37:38;7.00;87.90
78325;DHT22;67584;51.400;6.692;2023-12-20T12:40:06;7.10;87.50
78325;DHT22;67584;51.400;6.692;2023-12-20T12:42:32;7.30;87.60
78325;DHT22;67584;51.400;6.692;2023-12-20T12:44:58;7.30;87.70
78325;DHT22;67584;51.400;6.692;2023-12-20T12:47:24;7.20;87.50
78325;DHT22;67584;51.400;6.692;2023-12-20T12:49:51;7.10;88.10
78325;DHT22;67584;51.400;6.692;2023-12-20T12:52:18;7.00;88.00
78325;DHT22;67584;51.400;6.692;2023-12-20T12:54:43;6.90;88.20
78325;DHT22;67584;51.400;6.692;2023-12-20T12:57:11;7.10;88.40
78325;DHT22;67584;51.400;6.692;2023-12-20T12:59:37;7.00;89.10
78325;DHT22;67584;51.400;6.692;2023-12-20T13:02:02;7.00;89.40
78325;DHT22;67584;51.400;6.692;2023-12-20T13:04:28;7.00;90.30
78325;DHT22;67584;51.400;6.692;2023-12-20T13:06:54;6.50;90.30
78325;DHT22;67584;51.400;6.692;2023-12-20T13:09:20;6.70;90.60
78325;DHT22;67584;51.400;6.692;2023-12-20T13:11:49;6.60;91.00
78325;DHT22;67584;51.400;6.692;2023-12-20T13:14:15;6.50;91.80
78325;DHT22;67584;51.400;6.692;2023-12-20T13:16:42;6.60;92.00
78325;DHT22;67584;51.400;6.692;2023-12-20T13:19:08;6.30;92.20
78325;DHT22;67584;51.400;6.692;2023-12-20T13:21:34;6.40;92.20
78325;DHT22;67584;51.400;6.692;2023-12-20T13:23:59;6.50;92.20
78325;DHT22;67584;51.400;6.692;2023-12-20T13:26:25;6.40;92.20
78325;DHT22;67584;51.400;6.692;2023-12-20T13:28:51;6.40;92.20
78325;DHT22;67584;51.400;6.692;2023-12-20T13:31:16;6.20;92.20
78325;DHT22;67584;51.400;6.692;2023-12-20T13:33:42;6.20;92.20
78325;DHT22;67584;51.400;6.692;2023-12-20T13:36:08;6.30;92.20
78325;DHT22;67584;51.400;6.692;2023-12-20T13:38:34;6.40;92.20
78325;DHT22;67584;51.400;6.692;2023-12-20T13:40:59;6.30;92.20
78325;DHT22;67584;51.400;6.692;2023-12-20T13:43:25;6.40;92.20
78325;DHT22;67584;51.400;6.692;2023-12-20T13:45:51;6.50;92.20
78325;DHT22;67584;51.400;6.692;2023-12-20T13:48:16;6.50;92.20
78325;DHT22;67584;51.400;6.692;2023-12-20T13:50:42;6.20;92.20
78325;DHT22;67584;51.400;6.692;2023-12-20T13:53:08;6.30;92.20
78325;DHT22;67584;51.400;6.692;2023-12-20T13:55:34;6.40;92.20
78325;DHT22;67584;51.400;6.692;2023-12-20T13:57:59;6.40;92.20
78325;DHT22;67584;51.400;6.692;2023-12-20T14:00:25;6.50;92.20
78325;DHT22;67584;51.400;6.692;2023-12-20T14:02:51;6.30;92.20
78325;DHT22;67584;51.400;6.692;2023-12-20T14:05:17;6.50;92.20
78325;DHT22;67584;51.400;6.692;2023-12-20T14:07:45;6.40;92.20
78325;DHT22;67584;51.400;6.692;2023-12-20T14:10:12;6.40;92.20
78325;DHT22;67584;51.400;6.692;2023-12-20T14:12:41;6.50;92.20
78325;DHT22;67584;51.400;6.692;2023-12-20T14:15:07;6.50;92.20
78325;DHT22;67584;51.400;6.692;2023-12-20T14:17:38;6.50;92.20
78325;DHT22;67584;51.400;6.692;2023-12-20T14:20:06;6.60;92.20
78325;DHT22;67584;51.400;6.692;2023-12-20T14:22:32;6.60;92.20
78325;DHT22;67584;51.400;6.692;2023-12-20T14:24:58;6.60;92.20
78325;DHT22;67584;51.400;6.692;2023-12-20T14:27:24;6.70;92.20
78325;DHT22;67584;51.400;6.692;2023-12-20T14:29:56;6.70;92.20
78325;DHT22;67584;51.400;6.692;2023-12-20T14:32:21;6.70;92.20
78325;DHT22;67584;51.400;6.692;2023-12-20T14:34:47;6.60;92.20
78325;DHT22;67584;51.400;6.692;2023-12-20T14:37:13;6.90;92.20
78325;DHT22;67584;51.400;6.692;2023-12-20T14:39:39;6.60;92.20
78325;DHT22;67584;51.400;6.692;2023-12-20T14:42:10;6.80;92.20
78325;DHT22;67584;51.400;6.692;2023-12-20T14:44:39;6.90;92.10
78325;DHT22;67584;51.400;6.692;2023-12-20T14:47:06;6.80;92.10
78325;DHT22;67584;51.400;6.692;2023-12-20T14:49:32;6.90;92.00
78325;DHT22;67584;51.400;6.692;2023-12-20T14:51:58;6.90;91.90
78325;DHT22;67584;51.400;6.692;2023-12-20T14:54:24;7.00;92.00
78325;DHT22;67584;51.400;6.692;2023-12-20T14:56:49;6.70;92.10
78325;DHT22;67584;51.400;6.692;2023-12-20T14:59:15;6.90;92.00
78325;DHT22;67584;51.400;6.692;2023-12-20T15:01:41;7.00;92.00
78325;DHT22;67584;51.400;6.692;2023-12-20T15:04:07;7.10;91.90
78325;DHT22;67584;51.400;6.692;2023-12-20T15:06:33;7.00;91.90
78325;DHT22;67584;51.400;6.692;2023-12-20T15:08:59;7.20;91.80
78325;DHT22;67584;51.400;6.692;2023-12-20T15:11:26;7.10;91.90
78325;DHT22;67584;51.400;6.692;2023-12-20T15:13:52;7.10;91.80
78325;DHT22;67584;51.400;6.692;2023-12-20T15:16:24;7.10;91.90
78325;DHT22;67584;51.400;6.692;2023-12-20T15:18:51;7.10;91.90
78325;DHT22;67584;51.400;6.692;2023-12-20T15:21:19;6.90;91.60
78325;DHT22;67584;51.400;6.692;2023-12-20T15:23:44;7.00;91.20
78325;DHT22;67584;51.400;6.692;2023-12-20T15:26:19;7.20;91.20
78325;DHT22;67584;51.400;6.692;2023-12-20T15:28:45;7.10;91.40
78325;DHT22;67584;51.400;6.692;2023-12-20T15:31:10;7.00;91.30
78325;DHT22;67584;51.400;6.692;2023-12-20T15:33:36;7.20;91.40
78325;DHT22;67584;51.400;6.692;2023-12-20T15:36:02;7.10;91.20
78325;DHT22;67584;51.400;6.692;2023-12-20T15:38:28;7.20;91.00
78325;DHT22;67584;51.400;6.692;2023-12-20T15:40:53;7.20;91.20
78325;DHT22;67584;51.400;6.692;2023-12-20T15:43:19;7.10;91.20
78325;DHT22;67584;51.400;6.692;2023-12-20T15:45:45;6.90;91.00